KLND/LND METAR and TAF weather

Enter ICAO airport designator
Station Type Date Time Source
KLND METAR 2022/06/28 09:53 UTC NOAA

KLND 280953Z AUTO 25009KT 10SM CLR 16/02 A3031 RMK AO2 SLP191 T01610017


Station Type Date Time Source
KLND Decoded METAR 2022/06/28 09:53 UTC NOAA

LANDER HUNT FIELD, WY, United States (KLND) 42-49N 108-44W 1694M
Jun 28, 2022 - 05:53 AM EDT / 2022.06.28 0953 UTC
Wind: from the WSW (250 degrees) at 10 MPH (9 KT):0
Visibility: 10 mile(s):0
Sky conditions: clear
Temperature: 61.0 F (16.1 C)
Dew Point: 35.1 F (1.7 C)
Relative Humidity: 37%
Pressure (altimeter): 30.31 in. Hg (1026 hPa)
ob: KLND 280953Z AUTO 25009KT 10SM CLR 16/02 A3031 RMK AO2 SLP191 T01610017
cycle: 10

Station Type Date Time Source
KLND TAF 2022/06/28 06:33 UTC NOAA

TAF KLND 280531Z 2806/2906 VRB06KT P6SM FEW120
FM282300 24010G20KT P6SM VCSH SCT110 BKN140
FM290500 VRB06KT P6SM SCT120 BKN150

Example: see airport list